createdAt,value
2018-05-17T00:00:48.103Z,4.00
2018-05-17T00:01:48.276Z,4.00
2018-05-17T00:02:48.430Z,4.00
2018-05-17T00:03:48.606Z,4.00
2018-05-17T00:04:48.796Z,4.00
2018-05-17T00:05:48.996Z,4.00
2018-05-17T00:06:49.170Z,4.00
2018-05-17T00:07:49.339Z,4.00
2018-05-17T00:10:31.682Z,4.00
2018-05-17T00:11:31.841Z,4.00
2018-05-17T00:12:32.055Z,4.00
2018-05-17T00:13:32.180Z,4.00
2018-05-17T00:14:32.379Z,4.00
2018-05-17T00:15:32.571Z,4.00
2018-05-17T00:16:32.741Z,4.00
2018-05-17T00:17:32.895Z,4.00
2018-05-17T00:18:33.080Z,4.00
2018-05-17T00:19:33.258Z,4.00
2018-05-17T00:20:33.433Z,4.00
2018-05-17T00:21:33.641Z,4.00
2018-05-17T00:22:33.832Z,4.00
2018-05-17T00:23:34.007Z,4.00
2018-05-17T00:24:34.157Z,4.00
2018-05-17T00:27:16.782Z,4.00
2018-05-17T00:28:17.486Z,4.00
2018-05-17T00:29:17.142Z,4.00
2018-05-17T00:30:17.303Z,4.00
2018-05-17T00:31:17.471Z,4.00
2018-05-17T00:32:17.638Z,4.00
2018-05-17T00:33:17.799Z,4.00
2018-05-17T00:34:17.962Z,4.00
2018-05-17T00:35:18.127Z,4.00
2018-05-17T00:36:18.297Z,4.00
2018-05-17T00:37:18.479Z,4.00
2018-05-17T00:38:18.620Z,4.00
2018-05-17T00:39:18.786Z,4.00
2018-05-17T00:40:18.968Z,4.00
2018-05-17T00:41:19.117Z,4.00
2018-05-17T00:44:01.713Z,4.00
2018-05-17T00:45:01.875Z,4.00
2018-05-17T00:46:02.838Z,4.00
2018-05-17T00:47:02.250Z,4.00
2018-05-17T00:48:02.424Z,4.00
2018-05-17T00:49:02.581Z,4.00
2018-05-17T00:50:02.745Z,0.00
2018-05-17T00:51:02.931Z,0.00
2018-05-17T00:52:03.083Z,0.00
2018-05-17T00:53:03.242Z,0.00
2018-05-17T00:54:03.406Z,0.00
2018-05-17T00:55:03.588Z,0.00
2018-05-17T00:56:03.750Z,4.00
2018-05-17T00:57:03.902Z,4.00
2018-05-17T00:58:04.066Z,4.00
2018-05-17T01:00:46.629Z,4.00
2018-05-17T01:01:46.795Z,4.00
2018-05-17T01:02:46.958Z,4.00
2018-05-17T01:03:47.131Z,4.00
2018-05-17T01:04:47.303Z,4.00
2018-05-17T01:05:47.482Z,4.00
2018-05-17T01:06:47.673Z,4.00
2018-05-17T01:07:47.824Z,4.00
2018-05-17T01:08:47.989Z,4.00
2018-05-17T01:09:48.161Z,4.00
2018-05-17T01:10:48.336Z,4.00
2018-05-17T01:11:48.504Z,4.00
2018-05-17T01:12:48.701Z,4.00
2018-05-17T01:13:49.315Z,4.00
2018-05-17T01:14:49.090Z,4.00
2018-05-17T01:18:49.680Z,4.00
2018-05-17T01:19:49.838Z,4.00
2018-05-17T01:20:50.004Z,4.00
2018-05-17T01:21:50.167Z,4.00
2018-05-17T01:22:50.331Z,4.00
2018-05-17T01:23:50.500Z,4.00
2018-05-17T01:24:50.709Z,4.00
2018-05-17T01:25:50.836Z,4.00
2018-05-17T01:26:51.019Z,4.00
2018-05-17T01:27:51.189Z,4.00
2018-05-17T01:28:51.351Z,4.00
2018-05-17T01:29:51.517Z,4.00
2018-05-17T01:30:51.684Z,4.00
2018-05-17T01:31:51.851Z,4.00
2018-05-17T01:32:52.017Z,4.00
2018-05-17T01:35:24.603Z,4.00
2018-05-17T01:36:24.744Z,4.00
2018-05-17T01:37:24.897Z,4.00
2018-05-17T01:38:25.085Z,4.00
2018-05-17T01:39:25.254Z,4.00
2018-05-17T01:40:25.420Z,4.00
2018-05-17T01:41:25.588Z,4.00
2018-05-17T01:42:25.753Z,4.00
2018-05-17T01:43:25.918Z,4.00
2018-05-17T01:44:26.083Z,4.00
2018-05-17T01:45:26.239Z,4.00
2018-05-17T01:46:26.410Z,4.00
2018-05-17T01:47:26.555Z,4.00
2018-05-17T01:48:26.724Z,4.00
2018-05-17T01:49:26.894Z,4.00
2018-05-17T01:51:59.171Z,4.00
2018-05-17T01:52:59.343Z,4.00
2018-05-17T01:53:59.501Z,4.00
2018-05-17T01:54:59.656Z,4.00
2018-05-17T01:55:59.833Z,4.00
2018-05-17T01:57:00.002Z,4.00
2018-05-17T01:58:00.163Z,4.00
2018-05-17T01:59:00.330Z,4.00
2018-05-17T02:00:00.482Z,4.00
2018-05-17T02:01:00.651Z,4.00
2018-05-17T02:02:00.824Z,4.00
2018-05-17T02:03:00.986Z,4.00
2018-05-17T02:04:01.164Z,4.00
2018-05-17T02:05:01.326Z,4.00
2018-05-17T02:06:01.484Z,4.00
2018-05-17T02:08:43.745Z,4.00
2018-05-17T02:09:43.940Z,4.00
2018-05-17T02:10:44.084Z,4.00
2018-05-17T02:11:44.248Z,4.00
2018-05-17T02:12:44.411Z,4.00
2018-05-17T02:13:44.575Z,4.00
2018-05-17T02:14:44.748Z,4.00
2018-05-17T02:15:44.903Z,4.00
2018-05-17T02:16:45.067Z,4.00
2018-05-17T02:17:45.233Z,4.00
2018-05-17T02:18:45.398Z,4.00
2018-05-17T02:19:45.562Z,4.00
2018-05-17T02:20:45.727Z,4.00
2018-05-17T02:21:45.897Z,4.00
2018-05-17T02:22:46.051Z,4.00
2018-05-17T02:26:36.919Z,4.00
2018-05-17T02:27:36.713Z,4.00
2018-05-17T02:28:36.876Z,4.00
2018-05-17T02:29:37.044Z,4.00
2018-05-17T02:30:37.212Z,4.00
2018-05-17T02:31:44.844Z,4.00
2018-05-17T02:32:37.499Z,4.00
2018-05-17T02:33:37.699Z,4.00
2018-05-17T02:34:37.843Z,4.00
2018-05-17T02:35:37.996Z,4.00
2018-05-17T02:36:38.164Z,4.00
2018-05-17T02:37:38.321Z,4.00
2018-05-17T02:38:46.975Z,4.00
2018-05-17T02:39:38.637Z,4.00
2018-05-17T02:40:38.803Z,4.00
2018-05-17T02:41:38.968Z,4.00
2018-05-17T02:42:39.126Z,4.00
2018-05-17T02:43:39.307Z,4.00
2018-05-17T02:44:39.441Z,4.00
2018-05-17T02:45:39.611Z,4.00
2018-05-17T02:46:39.778Z,4.00
2018-05-17T02:47:39.941Z,4.00
2018-05-17T02:48:40.948Z,4.00
2018-05-17T02:49:40.232Z,4.00
2018-05-17T02:50:40.404Z,4.00
2018-05-17T02:51:40.571Z,4.00
2018-05-17T02:52:40.752Z,4.00
2018-05-17T02:53:40.898Z,4.00
2018-05-17T02:56:13.164Z,4.00
2018-05-17T02:57:13.338Z,4.00
2018-05-17T02:58:13.501Z,4.00
2018-05-17T02:59:13.668Z,4.00
2018-05-17T03:00:13.835Z,4.00
2018-05-17T03:01:13.999Z,4.00
2018-05-17T03:02:14.166Z,4.00
2018-05-17T03:03:14.328Z,4.00
2018-05-17T03:04:14.501Z,4.00
2018-05-17T03:05:14.665Z,4.00
2018-05-17T03:06:14.822Z,0.00
2018-05-17T03:07:14.988Z,4.00
2018-05-17T03:08:15.173Z,4.00
2018-05-17T03:09:15.340Z,4.00
2018-05-17T03:10:15.506Z,4.00
2018-05-17T03:12:47.772Z,0.00
2018-05-17T03:13:47.936Z,0.00
2018-05-17T03:14:48.108Z,0.00
2018-05-17T03:15:48.262Z,4.00
2018-05-17T03:16:48.430Z,4.00
2018-05-17T03:17:49.304Z,4.00
2018-05-17T03:18:48.731Z,4.00
2018-05-17T03:19:48.892Z,4.00
2018-05-17T03:20:49.060Z,4.00
2018-05-17T03:21:49.226Z,4.00
2018-05-17T03:22:49.385Z,4.00
2018-05-17T03:23:49.548Z,8.00
2018-05-17T03:24:49.712Z,8.00
2018-05-17T03:25:49.870Z,8.00
2018-05-17T03:26:50.809Z,8.00
2018-05-17T03:29:22.643Z,8.00
2018-05-17T03:30:22.813Z,12.00
2018-05-17T03:31:23.793Z,16.00
2018-05-17T03:32:23.194Z,16.00
2018-05-17T03:33:23.358Z,12.00
2018-05-17T03:34:23.518Z,16.00
2018-05-17T03:35:23.686Z,16.00
2018-05-17T03:36:23.847Z,20.00
2018-05-17T03:37:24.009Z,24.00
2018-05-17T03:38:24.172Z,24.00
2018-05-17T03:39:24.330Z,24.00
2018-05-17T03:40:24.497Z,28.00
2018-05-17T03:41:24.663Z,28.00
2018-05-17T03:42:24.819Z,32.00
2018-05-17T03:43:24.982Z,36.00
2018-05-17T03:46:07.250Z,40.00
2018-05-17T03:47:07.427Z,44.00
2018-05-17T03:48:07.586Z,48.00
2018-05-17T03:49:07.750Z,48.00
2018-05-17T03:50:07.917Z,52.00
2018-05-17T03:51:08.082Z,52.00
2018-05-17T03:52:08.250Z,56.00
2018-05-17T03:53:08.414Z,60.00
2018-05-17T03:54:08.598Z,60.00
2018-05-17T03:55:09.282Z,64.00
2018-05-17T03:56:08.946Z,68.00
2018-05-17T03:57:09.112Z,68.00
2018-05-17T03:58:09.275Z,72.00
2018-05-17T03:59:09.440Z,76.00
2018-05-17T04:00:09.621Z,84.00
2018-05-17T04:02:52.179Z,100.00
2018-05-17T04:03:52.353Z,108.00
2018-05-17T04:04:52.513Z,112.00
2018-05-17T04:05:52.694Z,116.00
2018-05-17T04:06:52.841Z,120.00
2018-05-17T04:07:53.004Z,128.00
2018-05-17T04:08:53.166Z,128.00
2018-05-17T04:09:53.327Z,132.00
2018-05-17T04:10:53.501Z,140.00
2018-05-17T04:11:53.658Z,144.00
2018-05-17T04:15:44.249Z,164.00
2018-05-17T04:16:44.406Z,168.00
2018-05-17T04:17:44.695Z,172.00
2018-05-17T04:20:16.411Z,172.00
2018-05-17T04:21:16.579Z,180.00
2018-05-17T04:22:16.744Z,184.00
2018-05-17T04:23:16.908Z,176.00
2018-05-17T04:24:17.119Z,172.00
2018-05-17T04:25:17.250Z,180.00
2018-05-17T04:26:24.594Z,180.00
2018-05-17T04:27:17.620Z,184.00
2018-05-17T04:28:17.818Z,184.00
2018-05-17T04:29:18.056Z,192.00
2018-05-17T04:30:18.166Z,192.00
2018-05-17T04:31:18.336Z,200.00
2018-05-17T04:32:18.498Z,216.00
2018-05-17T04:33:18.664Z,216.00
2018-05-17T04:34:18.830Z,220.00
2018-05-17T04:35:19.009Z,224.00
2018-05-17T04:36:19.154Z,220.00
2018-05-17T04:37:19.324Z,216.00
2018-05-17T04:38:19.482Z,224.00
2018-05-17T04:39:19.648Z,236.00
2018-05-17T04:40:19.812Z,236.00
2018-05-17T04:43:02.074Z,244.00
2018-05-17T04:44:02.240Z,248.00
2018-05-17T04:45:02.404Z,256.00
2018-05-17T04:46:02.568Z,264.00
2018-05-17T04:47:02.829Z,256.00
2018-05-17T04:48:02.899Z,252.00
2018-05-17T04:49:03.064Z,256.00
2018-05-17T04:50:03.239Z,260.00
2018-05-17T04:51:03.388Z,264.00
2018-05-17T04:52:03.551Z,264.00
2018-05-17T04:54:45.839Z,276.00
2018-05-17T04:55:45.978Z,288.00
2018-05-17T04:56:46.145Z,300.00
2018-05-17T04:57:46.311Z,300.00
2018-05-17T05:00:18.994Z,304.00
2018-05-17T05:01:19.103Z,288.00
2018-05-17T05:02:19.142Z,284.00
2018-05-17T05:03:26.580Z,280.00
2018-05-17T05:04:19.488Z,284.00
2018-05-17T05:05:19.665Z,288.00
2018-05-17T05:06:19.842Z,288.00
2018-05-17T05:07:20.043Z,292.00
2018-05-17T05:08:20.260Z,300.00
2018-05-17T05:09:20.451Z,292.00
2018-05-17T05:10:20.649Z,284.00
2018-05-17T05:11:20.731Z,296.00
2018-05-17T05:12:21.680Z,308.00
2018-05-17T05:13:21.650Z,308.00
2018-05-17T05:14:22.180Z,308.00
2018-05-17T05:15:21.463Z,304.00
2018-05-17T05:16:21.746Z,304.00
2018-05-17T05:17:21.844Z,296.00
2018-05-17T05:20:04.081Z,276.00
2018-05-17T05:21:12.195Z,272.00
2018-05-17T05:22:04.351Z,272.00
2018-05-17T05:23:04.516Z,284.00
2018-05-17T05:24:04.683Z,284.00
2018-05-17T05:25:12.434Z,296.00
2018-05-17T05:26:05.024Z,300.00
2018-05-17T05:27:05.193Z,304.00
2018-05-17T05:28:05.355Z,312.00
2018-05-17T05:29:05.517Z,328.00
2018-05-17T05:30:05.680Z,336.00
2018-05-17T05:31:05.878Z,360.00
2018-05-17T05:32:06.043Z,384.00
2018-05-17T05:33:06.230Z,388.00
2018-05-17T05:34:07.294Z,388.00
2018-05-17T05:35:06.574Z,380.00
2018-05-17T05:36:06.751Z,412.00
2018-05-17T05:37:06.957Z,436.00
2018-05-17T05:38:07.122Z,428.00
2018-05-17T05:39:08.299Z,416.00
2018-05-17T05:41:39.938Z,412.00
2018-05-17T05:42:40.089Z,400.00
2018-05-17T05:43:40.248Z,396.00
2018-05-17T05:44:40.421Z,388.00
2018-05-17T05:45:40.606Z,384.00
2018-05-17T05:46:40.756Z,400.00
2018-05-17T05:47:40.912Z,404.00
2018-05-17T05:48:41.061Z,416.00
2018-05-17T05:49:41.240Z,412.00
2018-05-17T05:50:41.418Z,420.00
2018-05-17T05:51:41.627Z,424.00
2018-05-17T05:52:41.735Z,424.00
2018-05-17T05:53:41.916Z,436.00
2018-05-17T05:54:42.088Z,436.00
2018-05-17T05:55:42.233Z,452.00
2018-05-17T05:58:14.525Z,512.00
2018-05-17T05:59:14.696Z,524.00
2018-05-17T06:00:14.867Z,524.00
2018-05-17T06:01:15.018Z,548.00
2018-05-17T06:02:15.181Z,560.00
2018-05-17T06:03:15.344Z,564.00
2018-05-17T06:04:15.509Z,568.00
2018-05-17T06:05:15.673Z,576.00
2018-05-17T06:06:15.846Z,564.00
2018-05-17T06:07:16.011Z,572.00
2018-05-17T06:08:16.258Z,540.00
2018-05-17T06:09:16.363Z,520.00
2018-05-17T06:10:16.541Z,540.00
2018-05-17T06:11:16.755Z,544.00
2018-05-17T06:12:16.866Z,508.00
2018-05-17T06:14:59.117Z,544.00
2018-05-17T06:15:59.288Z,580.00
2018-05-17T06:16:59.453Z,584.00
2018-05-17T06:17:59.622Z,608.00
2018-05-17T06:19:07.448Z,640.00
2018-05-17T06:19:59.985Z,696.00
2018-05-17T06:21:00.150Z,792.00
2018-05-17T06:22:00.324Z,860.00
2018-05-17T06:23:00.488Z,1036.00
2018-05-17T06:24:00.653Z,1560.00
2018-05-17T06:25:05.747Z,1372.00
2018-05-17T06:26:00.987Z,1820.00
2018-05-17T06:27:01.150Z,1744.00
2018-05-17T06:28:01.318Z,1756.00
2018-05-17T06:29:01.493Z,2080.00
2018-05-17T06:31:44.804Z,2268.00
2018-05-17T06:32:43.992Z,2172.00
2018-05-17T06:33:44.245Z,1512.00
2018-05-17T06:34:44.349Z,1316.00
2018-05-17T06:35:44.527Z,1252.00
2018-05-17T06:36:45.306Z,1196.00
2018-05-17T06:37:44.834Z,1168.00
2018-05-17T06:38:46.852Z,1180.00
2018-05-17T06:39:45.120Z,1172.00
2018-05-17T06:40:45.282Z,1228.00
2018-05-17T06:41:45.465Z,1272.00
2018-05-17T06:42:45.669Z,1304.00
2018-05-17T06:43:45.828Z,1340.00
2018-05-17T06:44:46.002Z,1380.00
2018-05-17T06:45:46.169Z,1404.00
2018-05-17T06:48:18.470Z,1376.00
2018-05-17T06:49:18.696Z,1408.00
2018-05-17T06:50:18.731Z,1268.00
2018-05-17T06:51:18.953Z,1500.00
2018-05-17T06:52:19.133Z,1292.00
2018-05-17T06:53:19.368Z,1236.00
2018-05-17T06:54:19.487Z,1276.00
2018-05-17T06:55:19.691Z,1340.00
2018-05-17T06:56:19.847Z,1524.00
2018-05-17T06:57:28.066Z,1672.00
2018-05-17T06:58:20.286Z,1732.00
2018-05-17T06:59:20.321Z,1916.00
2018-05-17T07:00:20.504Z,1848.00
2018-05-17T07:01:20.708Z,1796.00
2018-05-17T07:02:20.869Z,1996.00
2018-05-17T07:03:21.038Z,2260.00
2018-05-17T07:04:21.255Z,2352.00
2018-05-17T07:05:30.949Z,2256.00
2018-05-17T07:06:21.543Z,2276.00
2018-05-17T07:07:21.633Z,2252.00
2018-05-17T07:08:21.845Z,2280.00
2018-05-17T07:09:22.012Z,1740.00
2018-05-17T07:10:22.199Z,2216.00
2018-05-17T07:11:22.399Z,2212.00
2018-05-17T07:12:22.567Z,2052.00
2018-05-17T07:13:22.733Z,2000.00
2018-05-17T07:14:22.898Z,2016.00
2018-05-17T07:15:23.065Z,2092.00
2018-05-17T07:16:23.241Z,2312.00
2018-05-17T07:17:23.415Z,2304.00
2018-05-17T07:18:23.680Z,2000.00
2018-05-17T07:19:23.743Z,2176.00
2018-05-17T07:22:06.313Z,2292.00
2018-05-17T07:23:06.481Z,2212.00
2018-05-17T07:24:06.708Z,1900.00
2018-05-17T07:25:06.807Z,2444.00
2018-05-17T07:26:06.973Z,2508.00
2018-05-17T07:27:07.140Z,2332.00
2018-05-17T07:28:07.300Z,2024.00
2018-05-17T07:29:07.554Z,2444.00
2018-05-17T07:30:07.630Z,1996.00
2018-05-17T07:31:07.790Z,2068.00
2018-05-17T07:32:07.959Z,1692.00
2018-05-17T07:33:08.128Z,1648.00
2018-05-17T07:34:08.284Z,1532.00
2018-05-17T07:36:40.839Z,1372.00
2018-05-17T07:37:40.769Z,1408.00
2018-05-17T07:38:40.938Z,1580.00
2018-05-17T07:39:49.100Z,1472.00
2018-05-17T07:40:41.317Z,1540.00
2018-05-17T07:41:41.458Z,1732.00
2018-05-17T07:42:49.578Z,1464.00
2018-05-17T07:43:41.737Z,1820.00
2018-05-17T07:44:41.924Z,1852.00
2018-05-17T07:45:42.060Z,1760.00
2018-05-17T07:46:42.227Z,1812.00
2018-05-17T07:47:42.395Z,1936.00
2018-05-17T07:48:42.553Z,2040.00
2018-05-17T07:49:42.717Z,2216.00
2018-05-17T07:50:42.887Z,2508.00
2018-05-17T07:51:43.055Z,2272.00
2018-05-17T07:52:43.223Z,1852.00
2018-05-17T07:53:43.389Z,1728.00
2018-05-17T07:54:43.553Z,1656.00
2018-05-17T07:55:43.792Z,1720.00
2018-05-17T07:56:43.888Z,1960.00
2018-05-17T07:57:44.059Z,2264.00
2018-05-17T08:00:16.611Z,2008.00
2018-05-17T08:01:23.966Z,2300.00
2018-05-17T08:02:17.003Z,1912.00
2018-05-17T08:03:17.165Z,1696.00
2018-05-17T08:04:17.336Z,2192.00
2018-05-17T08:05:17.502Z,2000.00
2018-05-17T08:06:17.670Z,2232.00
2018-05-17T08:07:17.838Z,2220.00
2018-05-17T08:08:18.888Z,2084.00
2018-05-17T08:09:18.223Z,3044.00
2018-05-17T08:10:18.344Z,3172.00
2018-05-17T08:11:19.299Z,2824.00
2018-05-17T08:12:18.675Z,2880.00
2018-05-17T08:13:18.855Z,2428.00
2018-05-17T08:14:19.008Z,1804.00
2018-05-17T08:15:19.177Z,1724.00
2018-05-17T08:18:01.474Z,2268.00
2018-05-17T08:19:01.612Z,2356.00
2018-05-17T08:20:01.774Z,2272.00
2018-05-17T08:21:01.955Z,1544.00
2018-05-17T08:22:02.159Z,1752.00
2018-05-17T08:23:02.320Z,2968.00
2018-05-17T08:24:02.485Z,2476.00
2018-05-17T08:25:02.651Z,2844.00
2018-05-17T08:26:02.816Z,2220.00
2018-05-17T08:27:02.968Z,2928.00
2018-05-17T08:28:03.162Z,2204.00
2018-05-17T08:29:03.344Z,3000.00
2018-05-17T08:30:03.486Z,2804.00
2018-05-17T08:31:03.655Z,2724.00
2018-05-17T08:32:03.811Z,2404.00
2018-05-17T08:33:12.543Z,2708.00
2018-05-17T08:34:05.001Z,2004.00
2018-05-17T08:35:04.473Z,2836.00
2018-05-17T08:37:36.301Z,2212.00
2018-05-17T08:38:36.471Z,2084.00
2018-05-17T08:39:36.633Z,2208.00
2018-05-17T08:40:36.796Z,1976.00
2018-05-17T08:41:36.970Z,2228.00
2018-05-17T08:42:37.143Z,2040.00
2018-05-17T08:43:37.412Z,1984.00
2018-05-17T08:44:37.468Z,1992.00
2018-05-17T08:45:37.734Z,2080.00
2018-05-17T08:46:37.841Z,2068.00
2018-05-17T08:47:38.007Z,1980.00
2018-05-17T08:48:38.180Z,2068.00
2018-05-17T08:49:38.349Z,2264.00
2018-05-17T08:50:38.513Z,2092.00
2018-05-17T08:51:38.681Z,1784.00
2018-05-17T08:54:20.946Z,1592.00
2018-05-17T08:55:21.112Z,1564.00
2018-05-17T08:56:21.276Z,1564.00
2018-05-17T08:57:28.922Z,1464.00
2018-05-17T08:58:21.582Z,1532.00
2018-05-17T08:59:21.746Z,1568.00
2018-05-17T09:00:21.945Z,1596.00
2018-05-17T09:01:32.418Z,1584.00
2018-05-17T09:02:22.271Z,1596.00
2018-05-17T09:03:22.438Z,1584.00
2018-05-17T09:04:22.630Z,1584.00
2018-05-17T09:05:22.802Z,1624.00
2018-05-17T09:06:23.111Z,1664.00
2018-05-17T09:07:23.309Z,1608.00
2018-05-17T09:08:23.363Z,1652.00
2018-05-17T09:09:23.459Z,1696.00
2018-05-17T09:10:23.690Z,1672.00
2018-05-17T09:11:23.861Z,1668.00
2018-05-17T09:12:24.061Z,1732.00
2018-05-17T09:13:24.245Z,1832.00
2018-05-17T09:14:24.377Z,1928.00
2018-05-17T09:15:24.540Z,2096.00
2018-05-17T09:18:06.893Z,2448.00
2018-05-17T09:19:14.543Z,2712.00
2018-05-17T09:20:07.891Z,2800.00
2018-05-17T09:21:07.343Z,2432.00
2018-05-17T09:22:07.397Z,2496.00
2018-05-17T09:23:07.557Z,3016.00
2018-05-17T09:24:14.937Z,3168.00
2018-05-17T09:25:07.859Z,3048.00
2018-05-17T09:26:08.870Z,3052.00
2018-05-17T09:27:08.211Z,3168.00
2018-05-17T09:28:08.377Z,3204.00
2018-05-17T09:29:08.613Z,3180.00
2018-05-17T09:30:08.713Z,3168.00
2018-05-17T09:31:08.884Z,3248.00
2018-05-17T09:32:09.039Z,2464.00
2018-05-17T09:33:09.208Z,2684.00
2018-05-17T09:34:09.373Z,2832.00
2018-05-17T09:35:09.542Z,3104.00
2018-05-17T09:36:09.709Z,2904.00
2018-05-17T09:37:09.872Z,2588.00
2018-05-17T09:38:10.055Z,2452.00
2018-05-17T09:40:59.927Z,2536.00
2018-05-17T09:41:52.599Z,2156.00
2018-05-17T09:42:52.807Z,2088.00
2018-05-17T09:43:53.002Z,2104.00
2018-05-17T09:45:00.632Z,2448.00
2018-05-17T09:45:53.290Z,2956.00
2018-05-17T09:46:53.457Z,2476.00
2018-05-17T09:47:53.662Z,2772.00
2018-05-17T09:48:53.843Z,2168.00
2018-05-17T09:49:54.031Z,2092.00
2018-05-17T09:50:54.203Z,2068.00
2018-05-17T09:51:54.375Z,2328.00
2018-05-17T09:52:54.545Z,2144.00
2018-05-17T09:53:54.709Z,2184.00
2018-05-17T09:54:54.913Z,2200.00
2018-05-17T09:55:55.036Z,2332.00
2018-05-17T09:56:55.207Z,2472.00
2018-05-17T09:57:55.374Z,2924.00
2018-05-17T09:58:55.534Z,2408.00
2018-05-17T10:01:38.108Z,3380.00
2018-05-17T10:02:38.263Z,3348.00
2018-05-17T10:03:38.442Z,3280.00
2018-05-17T10:04:38.595Z,3388.00
2018-05-17T10:05:46.242Z,2584.00
2018-05-17T10:06:38.922Z,2760.00
2018-05-17T10:07:39.865Z,3472.00
2018-05-17T10:08:39.288Z,2292.00
2018-05-17T10:09:46.910Z,2196.00
2018-05-17T10:10:39.568Z,2188.00
2018-05-17T10:11:39.876Z,2260.00
2018-05-17T10:12:39.935Z,2200.00
2018-05-17T10:13:40.088Z,2156.00
2018-05-17T10:14:40.287Z,2096.00
2018-05-17T10:15:40.459Z,1972.00
2018-05-17T10:16:40.639Z,1980.00
2018-05-17T10:17:40.971Z,1952.00
2018-05-17T10:18:41.020Z,3048.00
2018-05-17T10:19:41.909Z,1880.00
2018-05-17T10:20:41.332Z,1752.00
2018-05-17T10:21:41.515Z,1752.00
2018-05-17T10:22:41.799Z,1724.00
2018-05-17T10:23:44.931Z,1696.00
2018-05-17T10:26:14.876Z,1740.00
2018-05-17T10:27:14.748Z,1736.00
2018-05-17T10:28:14.933Z,1720.00
2018-05-17T10:29:22.710Z,1772.00
2018-05-17T10:30:15.311Z,1784.00
2018-05-17T10:31:15.510Z,2024.00
2018-05-17T10:32:15.673Z,2260.00
2018-05-17T10:33:23.379Z,2380.00
2018-05-17T10:34:16.082Z,2208.00
2018-05-17T10:35:16.282Z,2124.00
2018-05-17T10:36:16.445Z,2472.00
2018-05-17T10:37:16.720Z,3116.00
2018-05-17T10:38:16.759Z,2984.00
2018-05-17T10:39:19.778Z,3012.00
2018-05-17T10:40:17.077Z,2784.00
2018-05-17T10:41:17.228Z,2504.00
2018-05-17T10:42:17.485Z,2020.00
2018-05-17T10:43:18.418Z,2852.00
2018-05-17T10:45:59.946Z,2964.00
2018-05-17T10:47:01.957Z,2008.00
2018-05-17T10:48:00.272Z,2380.00
2018-05-17T10:49:07.975Z,2896.00
2018-05-17T10:50:00.601Z,3056.00
2018-05-17T10:51:00.762Z,3096.00
2018-05-17T10:52:08.761Z,3120.00
2018-05-17T10:53:01.041Z,3380.00
2018-05-17T10:54:01.436Z,3240.00
2018-05-17T10:55:01.368Z,3372.00
2018-05-17T10:56:01.537Z,3104.00
2018-05-17T10:57:01.726Z,2968.00
2018-05-17T10:58:01.830Z,3012.00
2018-05-17T10:59:01.978Z,2928.00
2018-05-17T11:00:02.136Z,2968.00
2018-05-17T11:01:02.618Z,2944.00
2018-05-17T11:02:02.443Z,2916.00
2018-05-17T11:04:46.099Z,3056.00
2018-05-17T11:05:46.157Z,3048.00
2018-05-17T11:06:46.342Z,2996.00
2018-05-17T11:07:46.614Z,2996.00
2018-05-17T11:08:46.784Z,3044.00
2018-05-17T11:09:46.885Z,2980.00
2018-05-17T11:10:54.581Z,2956.00
2018-05-17T11:11:47.261Z,2920.00
2018-05-17T11:12:47.430Z,2980.00
2018-05-17T11:13:54.819Z,2960.00
2018-05-17T11:14:47.709Z,2836.00
2018-05-17T11:15:47.873Z,2764.00
2018-05-17T11:16:48.055Z,2780.00
2018-05-17T11:17:50.810Z,2696.00
2018-05-17T11:18:48.341Z,2592.00
2018-05-17T11:19:48.514Z,2508.00
2018-05-17T11:20:48.774Z,2268.00
2018-05-17T11:21:48.879Z,2220.00
2018-05-17T11:22:48.955Z,1968.00
2018-05-17T11:23:51.133Z,2276.00
2018-05-17T11:24:49.346Z,2196.00
2018-05-17T11:25:49.513Z,1988.00
2018-05-17T11:26:50.277Z,1968.00
2018-05-17T11:27:49.843Z,2100.00
2018-05-17T11:28:50.024Z,2348.00
2018-05-17T11:31:32.361Z,2192.00
2018-05-17T11:32:32.532Z,1864.00
2018-05-17T11:33:32.726Z,1808.00
2018-05-17T11:34:32.925Z,1808.00
2018-05-17T11:35:33.118Z,1668.00
2018-05-17T11:36:33.874Z,1628.00
2018-05-17T11:37:33.455Z,1584.00
2018-05-17T11:38:42.028Z,1552.00
2018-05-17T11:39:33.771Z,1500.00
2018-05-17T11:40:41.183Z,1508.00
2018-05-17T11:41:34.119Z,1480.00
2018-05-17T11:42:41.432Z,1528.00
2018-05-17T11:43:34.462Z,1436.00
2018-05-17T11:44:34.619Z,1460.00
2018-05-17T11:45:34.820Z,1488.00
2018-05-17T11:46:34.986Z,1472.00
2018-05-17T11:47:35.158Z,1528.00
2018-05-17T11:48:35.318Z,1496.00
2018-05-17T11:49:36.388Z,1500.00
2018-05-17T11:50:35.685Z,1512.00
2018-05-17T11:51:35.854Z,1520.00
2018-05-17T11:52:36.030Z,1576.00
2018-05-17T11:55:19.619Z,1680.00
2018-05-17T11:56:20.329Z,1624.00
2018-05-17T11:57:20.064Z,1892.00
2018-05-17T11:58:20.186Z,2384.00
2018-05-17T11:59:20.363Z,2516.00
2018-05-17T12:00:28.046Z,2568.00
2018-05-17T12:01:20.748Z,2644.00
2018-05-17T12:02:21.017Z,2652.00
2018-05-17T12:03:21.109Z,2540.00
2018-05-17T12:04:28.468Z,2352.00
2018-05-17T12:05:21.423Z,2144.00
2018-05-17T12:06:21.690Z,2176.00
2018-05-17T12:07:21.747Z,2200.00
2018-05-17T12:08:21.907Z,2392.00
2018-05-17T12:09:22.110Z,2384.00
2018-05-17T12:10:22.297Z,2376.00
2018-05-17T12:11:22.467Z,2440.00
2018-05-17T12:12:22.700Z,2444.00
2018-05-17T12:13:22.831Z,2468.00
2018-05-17T12:14:23.039Z,2468.00
2018-05-17T12:15:23.227Z,2548.00
2018-05-17T12:16:23.387Z,2512.00
2018-05-17T12:17:23.564Z,2512.00
2018-05-17T12:18:23.786Z,2484.00
2018-05-17T12:21:06.049Z,2336.00
2018-05-17T12:22:06.216Z,2524.00
2018-05-17T12:24:38.059Z,2468.00
2018-05-17T12:25:38.224Z,2484.00
2018-05-17T12:26:38.388Z,2500.00
2018-05-17T12:27:38.613Z,2588.00
2018-05-17T12:28:38.728Z,2548.00
2018-05-17T12:29:46.405Z,2576.00
2018-05-17T12:30:38.938Z,2504.00
2018-05-17T12:31:47.250Z,2508.00
2018-05-17T12:32:39.278Z,2536.00
2018-05-17T12:33:39.468Z,2504.00
2018-05-17T12:34:39.629Z,2488.00
2018-05-17T12:35:39.813Z,2420.00
2018-05-17T12:36:39.975Z,2432.00
2018-05-17T12:37:40.181Z,2408.00
2018-05-17T12:38:40.339Z,2340.00
2018-05-17T12:39:40.547Z,2424.00
2018-05-17T12:40:40.715Z,2380.00
2018-05-17T12:41:40.889Z,2476.00
2018-05-17T12:42:41.083Z,2436.00
2018-05-17T12:43:41.249Z,2392.00
2018-05-17T12:44:41.408Z,2396.00
2018-05-17T12:45:41.562Z,2432.00
2018-05-17T12:46:51.209Z,2424.00
2018-05-17T12:47:41.966Z,2340.00
2018-05-17T12:48:42.128Z,2372.00
2018-05-17T12:49:42.304Z,2380.00
2018-05-17T12:50:49.971Z,2292.00
2018-05-17T12:51:42.612Z,2284.00
2018-05-17T12:52:42.774Z,2316.00
2018-05-17T12:53:42.939Z,2236.00
2018-05-17T12:54:44.096Z,2156.00
2018-05-17T12:55:43.268Z,2212.00
2018-05-17T12:56:43.519Z,2168.00
2018-05-17T12:57:44.743Z,2204.00
2018-05-17T12:58:45.685Z,2188.00
2018-05-17T12:59:44.022Z,2200.00
2018-05-17T13:00:44.209Z,2168.00
2018-05-17T13:01:44.595Z,2084.00
2018-05-17T13:02:46.084Z,2032.00
2018-05-17T13:03:46.591Z,2020.00
2018-05-17T13:04:45.669Z,2004.00
2018-05-17T13:07:27.130Z,1660.00
2018-05-17T13:08:27.161Z,1600.00
2018-05-17T13:09:34.827Z,1596.00
2018-05-17T13:10:27.496Z,1584.00
2018-05-17T13:11:27.815Z,1528.00
2018-05-17T13:12:27.778Z,1548.00
2018-05-17T13:13:27.950Z,1408.00
2018-05-17T13:14:28.121Z,1264.00
2018-05-17T13:15:28.344Z,1276.00
2018-05-17T13:16:35.785Z,1700.00
2018-05-17T13:17:28.621Z,1912.00
2018-05-17T13:18:28.802Z,1928.00
2018-05-17T13:19:28.961Z,2004.00
2018-05-17T13:20:29.159Z,1960.00
2018-05-17T13:21:29.510Z,1928.00
2018-05-17T13:22:29.597Z,2140.00
2018-05-17T13:23:29.822Z,2000.00
2018-05-17T13:24:29.870Z,1936.00
2018-05-17T13:25:30.054Z,1920.00
2018-05-17T13:26:30.242Z,1808.00
2018-05-17T13:27:30.410Z,1716.00
2018-05-17T13:28:30.582Z,1624.00
2018-05-17T13:29:30.750Z,1748.00
2018-05-17T13:30:30.976Z,1732.00
2018-05-17T13:33:03.513Z,1964.00
2018-05-17T13:34:03.738Z,1940.00
2018-05-17T13:35:03.868Z,1960.00
2018-05-17T13:36:04.063Z,1952.00
2018-05-17T13:37:04.258Z,2012.00
2018-05-17T13:38:04.421Z,2096.00
2018-05-17T13:40:36.219Z,1944.00
2018-05-17T13:41:36.425Z,1852.00
2018-05-17T13:42:36.573Z,1928.00
2018-05-17T13:43:36.823Z,1936.00
2018-05-17T13:44:36.884Z,1888.00
2018-05-17T13:45:37.051Z,1908.00
2018-05-17T13:46:37.211Z,1956.00